sensor_id;sensor_type;location;lat;lon;timestamp;P1;durP1;ratioP1;P2;durP2;ratioP2
33162;SDS011;29282;45.656;11.302;2023-01-26T00:00:46;9.23;;;4.82;;
33162;SDS011;29282;45.656;11.302;2023-01-26T00:03:12;8.68;;;4.90;;
33162;SDS011;29282;45.656;11.302;2023-01-26T00:05:38;6.63;;;4.47;;
33162;SDS011;29282;45.656;11.302;2023-01-26T00:08:04;6.35;;;5.15;;
33162;SDS011;29282;45.656;11.302;2023-01-26T00:10:30;6.47;;;5.30;;
33162;SDS011;29282;45.656;11.302;2023-01-26T00:12:55;5.45;;;4.65;;
33162;SDS011;29282;45.656;11.302;2023-01-26T00:15:21;8.85;;;4.57;;
33162;SDS011;29282;45.656;11.302;2023-01-26T00:17:47;8.38;;;5.25;;
33162;SDS011;29282;45.656;11.302;2023-01-26T00:20:16;6.93;;;5.50;;
33162;SDS011;29282;45.656;11.302;2023-01-26T00:22:42;7.25;;;4.97;;
33162;SDS011;29282;45.656;11.302;2023-01-26T00:25:08;7.95;;;5.75;;
33162;SDS011;29282;45.656;11.302;2023-01-26T00:27:34;7.53;;;4.90;;
33162;SDS011;29282;45.656;11.302;2023-01-26T00:29:59;9.63;;;5.55;;
33162;SDS011;29282;45.656;11.302;2023-01-26T00:32:25;6.35;;;5.25;;
33162;SDS011;29282;45.656;11.302;2023-01-26T00:34:50;8.23;;;4.80;;
33162;SDS011;29282;45.656;11.302;2023-01-26T00:37:16;9.00;;;5.38;;
33162;SDS011;29282;45.656;11.302;2023-01-26T00:39:41;6.93;;;4.65;;
33162;SDS011;29282;45.656;11.302;2023-01-26T00:42:07;6.57;;;4.97;;
33162;SDS011;29282;45.656;11.302;2023-01-26T00:44:36;6.28;;;5.25;;
33162;SDS011;29282;45.656;11.302;2023-01-26T00:47:02;7.65;;;5.00;;
33162;SDS011;29282;45.656;11.302;2023-01-26T00:49:28;6.40;;;5.10;;
33162;SDS011;29282;45.656;11.302;2023-01-26T00:51:54;7.30;;;4.85;;
33162;SDS011;29282;45.656;11.302;2023-01-26T00:54:19;7.60;;;5.47;;
33162;SDS011;29282;45.656;11.302;2023-01-26T00:56:45;6.60;;;5.05;;
33162;SDS011;29282;45.656;11.302;2023-01-26T00:59:10;7.30;;;5.07;;
33162;SDS011;29282;45.656;11.302;2023-01-26T01:01:36;6.85;;;5.20;;
33162;SDS011;29282;45.656;11.302;2023-01-26T01:04:01;7.88;;;4.95;;
33162;SDS011;29282;45.656;11.302;2023-01-26T01:06:27;7.03;;;4.90;;
33162;SDS011;29282;45.656;11.302;2023-01-26T01:08:52;6.78;;;5.15;;
33162;SDS011;29282;45.656;11.302;2023-01-26T01:11:18;6.85;;;4.65;;
33162;SDS011;29282;45.656;11.302;2023-01-26T01:13:43;9.93;;;5.10;;
33162;SDS011;29282;45.656;11.302;2023-01-26T01:16:10;7.28;;;5.45;;
33162;SDS011;29282;45.656;11.302;2023-01-26T01:18:38;6.50;;;4.47;;
33162;SDS011;29282;45.656;11.302;2023-01-26T01:21:05;6.47;;;5.30;;
33162;SDS011;29282;45.656;11.302;2023-01-26T01:23:34;9.02;;;5.35;;
33162;SDS011;29282;45.656;11.302;2023-01-26T01:25:59;5.82;;;5.13;;
33162;SDS011;29282;45.656;11.302;2023-01-26T01:28:25;6.93;;;4.97;;
33162;SDS011;29282;45.656;11.302;2023-01-26T01:30:51;7.32;;;4.60;;
33162;SDS011;29282;45.656;11.302;2023-01-26T01:33:16;5.78;;;5.10;;
33162;SDS011;29282;45.656;11.302;2023-01-26T01:35:42;5.22;;;4.57;;
33162;SDS011;29282;45.656;11.302;2023-01-26T01:38:08;9.13;;;5.20;;
33162;SDS011;29282;45.656;11.302;2023-01-26T01:40:33;6.68;;;4.50;;
33162;SDS011;29282;45.656;11.302;2023-01-26T01:42:59;6.25;;;5.20;;
33162;SDS011;29282;45.656;11.302;2023-01-26T01:47:53;5.82;;;4.50;;
33162;SDS011;29282;45.656;11.302;2023-01-26T01:50:21;5.43;;;4.70;;
33162;SDS011;29282;45.656;11.302;2023-01-26T01:52:48;6.88;;;4.50;;
33162;SDS011;29282;45.656;11.302;2023-01-26T01:55:13;5.18;;;4.45;;
33162;SDS011;29282;45.656;11.302;2023-01-26T01:57:44;7.80;;;4.80;;
33162;SDS011;29282;45.656;11.302;2023-01-26T02:00:20;6.68;;;4.97;;
33162;SDS011;29282;45.656;11.302;2023-01-26T02:02:49;6.35;;;4.25;;
33162;SDS011;29282;45.656;11.302;2023-01-26T02:05:42;7.38;;;5.03;;
33162;SDS011;29282;45.656;11.302;2023-01-26T02:08:29;6.65;;;4.57;;
33162;SDS011;29282;45.656;11.302;2023-01-26T02:10:58;6.03;;;5.28;;
33162;SDS011;29282;45.656;11.302;2023-01-26T02:13:28;7.18;;;4.93;;
33162;SDS011;29282;45.656;11.302;2023-01-26T02:15:56;6.65;;;4.40;;
33162;SDS011;29282;45.656;11.302;2023-01-26T02:18:23;6.68;;;5.07;;
33162;SDS011;29282;45.656;11.302;2023-01-26T02:20:50;6.68;;;4.55;;
33162;SDS011;29282;45.656;11.302;2023-01-26T02:28:17;6.18;;;4.35;;
33162;SDS011;29282;45.656;11.302;2023-01-26T02:30:44;5.28;;;4.50;;
33162;SDS011;29282;45.656;11.302;2023-01-26T02:33:29;6.18;;;5.05;;
33162;SDS011;29282;45.656;11.302;2023-01-26T02:35:56;5.90;;;4.72;;
33162;SDS011;29282;45.656;11.302;2023-01-26T02:38:22;6.13;;;4.90;;
33162;SDS011;29282;45.656;11.302;2023-01-26T02:40:58;5.95;;;5.05;;
33162;SDS011;29282;45.656;11.302;2023-01-26T02:43:31;7.13;;;4.70;;
33162;SDS011;29282;45.656;11.302;2023-01-26T02:45:57;5.63;;;4.88;;
33162;SDS011;29282;45.656;11.302;2023-01-26T02:48:23;6.70;;;4.60;;
33162;SDS011;29282;45.656;11.302;2023-01-26T02:51:07;6.95;;;4.88;;
33162;SDS011;29282;45.656;11.302;2023-01-26T02:53:33;5.65;;;4.63;;
33162;SDS011;29282;45.656;11.302;2023-01-26T02:55:59;6.95;;;4.38;;
33162;SDS011;29282;45.656;11.302;2023-01-26T02:58:24;6.00;;;4.60;;
33162;SDS011;29282;45.656;11.302;2023-01-26T03:00:50;5.28;;;4.50;;
33162;SDS011;29282;45.656;11.302;2023-01-26T03:03:17;5.88;;;4.75;;
33162;SDS011;29282;45.656;11.302;2023-01-26T03:05:46;6.43;;;4.68;;
33162;SDS011;29282;45.656;11.302;2023-01-26T03:08:12;6.47;;;4.60;;
33162;SDS011;29282;45.656;11.302;2023-01-26T03:10:38;5.50;;;4.68;;
33162;SDS011;29282;45.656;11.302;2023-01-26T03:13:03;5.88;;;4.60;;
33162;SDS011;29282;45.656;11.302;2023-01-26T03:15:29;5.45;;;4.47;;
33162;SDS011;29282;45.656;11.302;2023-01-26T03:18:13;6.55;;;4.80;;
33162;SDS011;29282;45.656;11.302;2023-01-26T03:21:00;5.18;;;4.30;;
33162;SDS011;29282;45.656;11.302;2023-01-26T03:23:45;5.90;;;4.50;;
33162;SDS011;29282;45.656;11.302;2023-01-26T03:26:30;6.10;;;4.95;;
33162;SDS011;29282;45.656;11.302;2023-01-26T03:29:14;9.00;;;5.23;;
33162;SDS011;29282;45.656;11.302;2023-01-26T03:31:40;7.18;;;5.10;;
33162;SDS011;29282;45.656;11.302;2023-01-26T03:34:05;7.25;;;4.63;;
33162;SDS011;29282;45.656;11.302;2023-01-26T03:36:31;6.90;;;4.85;;
33162;SDS011;29282;45.656;11.302;2023-01-26T03:38:56;6.45;;;5.05;;
33162;SDS011;29282;45.656;11.302;2023-01-26T03:41:22;6.05;;;4.82;;
33162;SDS011;29282;45.656;11.302;2023-01-26T03:44:06;7.63;;;5.13;;
33162;SDS011;29282;45.656;11.302;2023-01-26T03:46:50;8.05;;;4.90;;
33162;SDS011;29282;45.656;11.302;2023-01-26T03:49:34;7.60;;;5.00;;
33162;SDS011;29282;45.656;11.302;2023-01-26T03:52:18;10.63;;;5.00;;
33162;SDS011;29282;45.656;11.302;2023-01-26T03:55:02;6.87;;;5.00;;
33162;SDS011;29282;45.656;11.302;2023-01-26T03:57:47;7.05;;;4.68;;
33162;SDS011;29282;45.656;11.302;2023-01-26T04:00:13;8.10;;;4.97;;
33162;SDS011;29282;45.656;11.302;2023-01-26T04:02:39;8.50;;;5.30;;
33162;SDS011;29282;45.656;11.302;2023-01-26T04:05:23;7.38;;;5.03;;
33162;SDS011;29282;45.656;11.302;2023-01-26T04:08:07;7.63;;;5.43;;
33162;SDS011;29282;45.656;11.302;2023-01-26T04:10:50;8.07;;;5.43;;
33162;SDS011;29282;45.656;11.302;2023-01-26T04:13:22;7.97;;;5.13;;
33162;SDS011;29282;45.656;11.302;2023-01-26T04:16:08;8.02;;;5.18;;
33162;SDS011;29282;45.656;11.302;2023-01-26T04:18:52;9.15;;;5.05;;
33162;SDS011;29282;45.656;11.302;2023-01-26T04:24:03;9.23;;;5.28;;
33162;SDS011;29282;45.656;11.302;2023-01-26T04:26:38;9.43;;;4.97;;
33162;SDS011;29282;45.656;11.302;2023-01-26T04:29:06;9.15;;;5.57;;
33162;SDS011;29282;45.656;11.302;2023-01-26T04:31:36;7.00;;;4.70;;
33162;SDS011;29282;45.656;11.302;2023-01-26T04:34:03;7.22;;;5.20;;
33162;SDS011;29282;45.656;11.302;2023-01-26T04:36:30;10.13;;;5.57;;
33162;SDS011;29282;45.656;11.302;2023-01-26T04:38:56;6.50;;;4.65;;
33162;SDS011;29282;45.656;11.302;2023-01-26T04:41:22;9.30;;;5.18;;
33162;SDS011;29282;45.656;11.302;2023-01-26T04:43:48;8.82;;;4.97;;
33162;SDS011;29282;45.656;11.302;2023-01-26T04:46:14;7.07;;;4.70;;
33162;SDS011;29282;45.656;11.302;2023-01-26T04:48:40;7.60;;;5.10;;
33162;SDS011;29282;45.656;11.302;2023-01-26T04:51:09;8.27;;;5.10;;
33162;SDS011;29282;45.656;11.302;2023-01-26T04:53:37;8.23;;;4.97;;
33162;SDS011;29282;45.656;11.302;2023-01-26T04:56:03;8.00;;;5.45;;
33162;SDS011;29282;45.656;11.302;2023-01-26T04:58:29;8.48;;;5.20;;
33162;SDS011;29282;45.656;11.302;2023-01-26T05:00:55;7.47;;;5.32;;
33162;SDS011;29282;45.656;11.302;2023-01-26T05:03:22;9.18;;;4.80;;
33162;SDS011;29282;45.656;11.302;2023-01-26T05:05:49;7.13;;;4.80;;
33162;SDS011;29282;45.656;11.302;2023-01-26T05:08:17;8.55;;;5.55;;
33162;SDS011;29282;45.656;11.302;2023-01-26T05:10:43;8.15;;;4.85;;
33162;SDS011;29282;45.656;11.302;2023-01-26T05:13:10;6.93;;;5.10;;
33162;SDS011;29282;45.656;11.302;2023-01-26T05:15:35;8.05;;;4.80;;
33162;SDS011;29282;45.656;11.302;2023-01-26T05:18:01;9.10;;;5.03;;
33162;SDS011;29282;45.656;11.302;2023-01-26T05:20:28;5.95;;;4.60;;
33162;SDS011;29282;45.656;11.302;2023-01-26T05:22:53;9.32;;;5.20;;
33162;SDS011;29282;45.656;11.302;2023-01-26T05:25:19;10.00;;;4.65;;
33162;SDS011;29282;45.656;11.302;2023-01-26T05:27:45;8.43;;;5.25;;
33162;SDS011;29282;45.656;11.302;2023-01-26T05:30:10;8.02;;;4.82;;
33162;SDS011;29282;45.656;11.302;2023-01-26T05:32:37;27.60;;;8.15;;
33162;SDS011;29282;45.656;11.302;2023-01-26T05:35:03;59.38;;;14.13;;
33162;SDS011;29282;45.656;11.302;2023-01-26T05:37:29;51.55;;;14.35;;
33162;SDS011;29282;45.656;11.302;2023-01-26T05:39:55;52.90;;;14.32;;
33162;SDS011;29282;45.656;11.302;2023-01-26T05:42:21;60.17;;;16.60;;
33162;SDS011;29282;45.656;11.302;2023-01-26T05:44:47;62.90;;;16.30;;
33162;SDS011;29282;45.656;11.302;2023-01-26T05:47:13;58.67;;;15.85;;
33162;SDS011;29282;45.656;11.302;2023-01-26T05:49:39;61.63;;;16.48;;
33162;SDS011;29282;45.656;11.302;2023-01-26T05:52:10;50.63;;;16.13;;
33162;SDS011;29282;45.656;11.302;2023-01-26T05:54:38;50.72;;;16.00;;
33162;SDS011;29282;45.656;11.302;2023-01-26T05:57:04;60.95;;;15.90;;
33162;SDS011;29282;45.656;11.302;2023-01-26T05:59:31;56.33;;;16.65;;
33162;SDS011;29282;45.656;11.302;2023-01-26T06:01:56;59.50;;;16.83;;
33162;SDS011;29282;45.656;11.302;2023-01-26T06:04:22;58.03;;;15.00;;
33162;SDS011;29282;45.656;11.302;2023-01-26T06:06:51;53.30;;;14.88;;
33162;SDS011;29282;45.656;11.302;2023-01-26T06:09:17;56.70;;;15.65;;
33162;SDS011;29282;45.656;11.302;2023-01-26T06:11:43;51.88;;;15.40;;
33162;SDS011;29282;45.656;11.302;2023-01-26T06:14:09;51.70;;;14.88;;
33162;SDS011;29282;45.656;11.302;2023-01-26T06:16:34;52.95;;;14.68;;
33162;SDS011;29282;45.656;11.302;2023-01-26T06:19:00;46.88;;;15.57;;
33162;SDS011;29282;45.656;11.302;2023-01-26T06:21:25;49.22;;;14.18;;
33162;SDS011;29282;45.656;11.302;2023-01-26T06:23:51;47.63;;;14.73;;
33162;SDS011;29282;45.656;11.302;2023-01-26T06:26:16;46.60;;;14.02;;
33162;SDS011;29282;45.656;11.302;2023-01-26T06:28:43;49.35;;;14.57;;
33162;SDS011;29282;45.656;11.302;2023-01-26T06:31:09;43.05;;;14.07;;
33162;SDS011;29282;45.656;11.302;2023-01-26T06:33:35;44.50;;;13.98;;
33162;SDS011;29282;45.656;11.302;2023-01-26T06:36:22;39.65;;;14.18;;
33162;SDS011;29282;45.656;11.302;2023-01-26T06:38:48;41.25;;;13.68;;
33162;SDS011;29282;45.656;11.302;2023-01-26T06:41:16;46.08;;;13.00;;
33162;SDS011;29282;45.656;11.302;2023-01-26T06:43:43;40.92;;;12.95;;
33162;SDS011;29282;45.656;11.302;2023-01-26T06:46:10;42.72;;;14.32;;
33162;SDS011;29282;45.656;11.302;2023-01-26T06:48:36;39.42;;;13.02;;
33162;SDS011;29282;45.656;11.302;2023-01-26T06:51:33;37.78;;;13.85;;
33162;SDS011;29282;45.656;11.302;2023-01-26T06:54:00;48.55;;;14.23;;
33162;SDS011;29282;45.656;11.302;2023-01-26T06:56:25;42.53;;;13.45;;
33162;SDS011;29282;45.656;11.302;2023-01-26T06:58:52;37.13;;;12.85;;
33162;SDS011;29282;45.656;11.302;2023-01-26T07:03:48;40.72;;;13.25;;
33162;SDS011;29282;45.656;11.302;2023-01-26T07:06:14;41.45;;;13.57;;
33162;SDS011;29282;45.656;11.302;2023-01-26T07:08:40;40.70;;;13.63;;
33162;SDS011;29282;45.656;11.302;2023-01-26T07:11:06;35.53;;;12.98;;
33162;SDS011;29282;45.656;11.302;2023-01-26T07:13:32;42.13;;;12.32;;
33162;SDS011;29282;45.656;11.302;2023-01-26T07:16:01;40.95;;;12.93;;
33162;SDS011;29282;45.656;11.302;2023-01-26T07:18:28;33.25;;;12.00;;
33162;SDS011;29282;45.656;11.302;2023-01-26T07:20:53;36.70;;;12.90;;
33162;SDS011;29282;45.656;11.302;2023-01-26T07:23:19;34.08;;;12.95;;
33162;SDS011;29282;45.656;11.302;2023-01-26T07:25:44;39.42;;;12.48;;
33162;SDS011;29282;45.656;11.302;2023-01-26T07:28:10;34.35;;;12.43;;
33162;SDS011;29282;45.656;11.302;2023-01-26T07:30:35;32.17;;;12.13;;
33162;SDS011;29282;45.656;11.302;2023-01-26T07:33:01;40.67;;;12.80;;
33162;SDS011;29282;45.656;11.302;2023-01-26T07:35:27;35.85;;;11.23;;
33162;SDS011;29282;45.656;11.302;2023-01-26T07:37:53;38.03;;;12.27;;
33162;SDS011;29282;45.656;11.302;2023-01-26T07:40:19;37.05;;;12.73;;
33162;SDS011;29282;45.656;11.302;2023-01-26T07:42:45;36.38;;;11.82;;
33162;SDS011;29282;45.656;11.302;2023-01-26T07:45:11;29.20;;;10.98;;
33162;SDS011;29282;45.656;11.302;2023-01-26T07:47:36;29.50;;;11.90;;
33162;SDS011;29282;45.656;11.302;2023-01-26T07:50:02;32.90;;;12.18;;
33162;SDS011;29282;45.656;11.302;2023-01-26T07:52:28;27.58;;;10.73;;
33162;SDS011;29282;45.656;11.302;2023-01-26T07:54:53;37.05;;;12.15;;
33162;SDS011;29282;45.656;11.302;2023-01-26T07:57:19;31.63;;;11.30;;
33162;SDS011;29282;45.656;11.302;2023-01-26T07:59:44;26.83;;;11.55;;
33162;SDS011;29282;45.656;11.302;2023-01-26T08:02:10;26.33;;;10.52;;
33162;SDS011;29282;45.656;11.302;2023-01-26T08:04:35;30.67;;;10.73;;
33162;SDS011;29282;45.656;11.302;2023-01-26T08:07:00;26.65;;;10.98;;
33162;SDS011;29282;45.656;11.302;2023-01-26T08:09:26;32.55;;;10.40;;
33162;SDS011;29282;45.656;11.302;2023-01-26T08:11:51;29.38;;;10.50;;
33162;SDS011;29282;45.656;11.302;2023-01-26T08:14:17;24.98;;;10.07;;
33162;SDS011;29282;45.656;11.302;2023-01-26T08:16:42;27.65;;;10.75;;
33162;SDS011;29282;45.656;11.302;2023-01-26T08:19:09;27.25;;;10.48;;
33162;SDS011;29282;45.656;11.302;2023-01-26T08:21:34;23.70;;;10.25;;
33162;SDS011;29282;45.656;11.302;2023-01-26T08:24:00;23.60;;;10.23;;
33162;SDS011;29282;45.656;11.302;2023-01-26T08:26:27;33.97;;;10.88;;
33162;SDS011;29282;45.656;11.302;2023-01-26T08:28:53;24.02;;;10.95;;
33162;SDS011;29282;45.656;11.302;2023-01-26T08:31:19;28.10;;;10.00;;
33162;SDS011;29282;45.656;11.302;2023-01-26T08:33:46;25.67;;;10.40;;
33162;SDS011;29282;45.656;11.302;2023-01-26T08:36:14;28.33;;;10.32;;
33162;SDS011;29282;45.656;11.302;2023-01-26T08:38:41;28.00;;;10.75;;
33162;SDS011;29282;45.656;11.302;2023-01-26T08:41:07;22.27;;;10.48;;
33162;SDS011;29282;45.656;11.302;2023-01-26T08:43:33;22.42;;;9.50;;
33162;SDS011;29282;45.656;11.302;2023-01-26T08:45:59;24.13;;;10.30;;
33162;SDS011;29282;45.656;11.302;2023-01-26T08:48:25;18.38;;;8.68;;
33162;SDS011;29282;45.656;11.302;2023-01-26T08:50:54;21.63;;;9.15;;
33162;SDS011;29282;45.656;11.302;2023-01-26T08:53:21;26.98;;;10.07;;
33162;SDS011;29282;45.656;11.302;2023-01-26T08:55:47;25.55;;;9.82;;
33162;SDS011;29282;45.656;11.302;2023-01-26T08:58:13;25.67;;;9.65;;
33162;SDS011;29282;45.656;11.302;2023-01-26T09:00:38;21.15;;;9.57;;
33162;SDS011;29282;45.656;11.302;2023-01-26T09:03:04;30.00;;;10.13;;
33162;SDS011;29282;45.656;11.302;2023-01-26T09:05:30;20.38;;;9.73;;
33162;SDS011;29282;45.656;11.302;2023-01-26T09:07:57;19.05;;;9.38;;
33162;SDS011;29282;45.656;11.302;2023-01-26T09:10:23;21.38;;;9.88;;
33162;SDS011;29282;45.656;11.302;2023-01-26T09:12:49;25.23;;;9.57;;
33162;SDS011;29282;45.656;11.302;2023-01-26T09:15:14;22.85;;;9.98;;
33162;SDS011;29282;45.656;11.302;2023-01-26T09:17:40;20.65;;;9.32;;
33162;SDS011;29282;45.656;11.302;2023-01-26T09:20:07;20.02;;;9.43;;
33162;SDS011;29282;45.656;11.302;2023-01-26T09:22:36;20.10;;;9.68;;
33162;SDS011;29282;45.656;11.302;2023-01-26T09:25:01;18.88;;;9.07;;
33162;SDS011;29282;45.656;11.302;2023-01-26T09:27:27;18.52;;;8.88;;
33162;SDS011;29282;45.656;11.302;2023-01-26T09:29:53;18.65;;;8.98;;
33162;SDS011;29282;45.656;11.302;2023-01-26T09:32:20;15.18;;;8.43;;
33162;SDS011;29282;45.656;11.302;2023-01-26T09:34:45;19.35;;;8.25;;
33162;SDS011;29282;45.656;11.302;2023-01-26T09:37:11;19.85;;;8.85;;
33162;SDS011;29282;45.656;11.302;2023-01-26T09:39:36;18.05;;;8.95;;
33162;SDS011;29282;45.656;11.302;2023-01-26T09:44:42;20.15;;;9.38;;
33162;SDS011;29282;45.656;11.302;2023-01-26T09:50:30;20.38;;;8.23;;
33162;SDS011;29282;45.656;11.302;2023-01-26T09:53:09;21.77;;;9.73;;
33162;SDS011;29282;45.656;11.302;2023-01-26T09:55:39;20.13;;;8.77;;
33162;SDS011;29282;45.656;11.302;2023-01-26T10:01:01;18.77;;;8.50;;
33162;SDS011;29282;45.656;11.302;2023-01-26T10:03:45;17.30;;;8.75;;
33162;SDS011;29282;45.656;11.302;2023-01-26T10:06:24;18.58;;;8.40;;
33162;SDS011;29282;45.656;11.302;2023-01-26T10:09:18;19.98;;;8.38;;
33162;SDS011;29282;45.656;11.302;2023-01-26T10:11:47;15.27;;;7.90;;
33162;SDS011;29282;45.656;11.302;2023-01-26T10:14:20;17.70;;;8.95;;
33162;SDS011;29282;45.656;11.302;2023-01-26T10:16:56;16.70;;;8.25;;
33162;SDS011;29282;45.656;11.302;2023-01-26T10:21:56;18.23;;;8.15;;
33162;SDS011;29282;45.656;11.302;2023-01-26T10:24:26;17.45;;;8.27;;
33162;SDS011;29282;45.656;11.302;2023-01-26T10:26:52;17.92;;;8.20;;
33162;SDS011;29282;45.656;11.302;2023-01-26T10:29:21;14.07;;;8.35;;
33162;SDS011;29282;45.656;11.302;2023-01-26T10:31:47;20.83;;;8.32;;
33162;SDS011;29282;45.656;11.302;2023-01-26T10:34:14;15.68;;;7.32;;
33162;SDS011;29282;45.656;11.302;2023-01-26T10:36:43;16.98;;;7.95;;
33162;SDS011;29282;45.656;11.302;2023-01-26T10:39:11;16.75;;;7.68;;
33162;SDS011;29282;45.656;11.302;2023-01-26T10:41:38;16.98;;;6.68;;
33162;SDS011;29282;45.656;11.302;2023-01-26T10:44:24;14.88;;;7.60;;
33162;SDS011;29282;45.656;11.302;2023-01-26T10:47:03;15.27;;;8.83;;
33162;SDS011;29282;45.656;11.302;2023-01-26T10:49:38;13.13;;;7.40;;
33162;SDS011;29282;45.656;11.302;2023-01-26T10:52:04;15.45;;;7.82;;
33162;SDS011;29282;45.656;11.302;2023-01-26T10:54:41;13.10;;;7.93;;
33162;SDS011;29282;45.656;11.302;2023-01-26T10:57:27;15.93;;;8.10;;
33162;SDS011;29282;45.656;11.302;2023-01-26T10:59:55;12.82;;;7.60;;
33162;SDS011;29282;45.656;11.302;2023-01-26T11:02:24;13.90;;;7.53;;
33162;SDS011;29282;45.656;11.302;2023-01-26T11:07:36;13.82;;;7.80;;
33162;SDS011;29282;45.656;11.302;2023-01-26T11:13:06;14.85;;;7.30;;
33162;SDS011;29282;45.656;11.302;2023-01-26T11:15:46;11.45;;;7.03;;
33162;SDS011;29282;45.656;11.302;2023-01-26T11:37:31;12.52;;;7.18;;
33162;SDS011;29282;45.656;11.302;2023-01-26T11:40:37;10.55;;;6.88;;
33162;SDS011;29282;45.656;11.302;2023-01-26T11:45:33;11.13;;;6.75;;
33162;SDS011;29282;45.656;11.302;2023-01-26T11:54:17;10.40;;;6.63;;
33162;SDS011;29282;45.656;11.302;2023-01-26T11:56:47;11.57;;;6.63;;
33162;SDS011;29282;45.656;11.302;2023-01-26T12:02:18;9.32;;;6.20;;
33162;SDS011;29282;45.656;11.302;2023-01-26T12:05:13;11.98;;;6.68;;
33162;SDS011;29282;45.656;11.302;2023-01-26T12:07:53;12.77;;;6.32;;
33162;SDS011;29282;45.656;11.302;2023-01-26T12:10:26;12.38;;;6.82;;
33162;SDS011;29282;45.656;11.302;2023-01-26T12:13:27;11.50;;;6.80;;
33162;SDS011;29282;45.656;11.302;2023-01-26T12:16:10;11.43;;;6.45;;
33162;SDS011;29282;45.656;11.302;2023-01-26T12:18:47;11.18;;;6.65;;
33162;SDS011;29282;45.656;11.302;2023-01-26T12:21:24;12.00;;;6.78;;
33162;SDS011;29282;45.656;11.302;2023-01-26T12:23:59;10.02;;;6.05;;
33162;SDS011;29282;45.656;11.302;2023-01-26T12:26:38;10.50;;;6.53;;
33162;SDS011;29282;45.656;11.302;2023-01-26T12:31:48;13.18;;;6.25;;
33162;SDS011;29282;45.656;11.302;2023-01-26T12:34:26;14.60;;;6.50;;
33162;SDS011;29282;45.656;11.302;2023-01-26T12:39:38;13.95;;;6.82;;
33162;SDS011;29282;45.656;11.302;2023-01-26T12:42:28;12.25;;;6.40;;
33162;SDS011;29282;45.656;11.302;2023-01-26T12:45:19;13.15;;;6.75;;
33162;SDS011;29282;45.656;11.302;2023-01-26T12:47:54;9.15;;;5.80;;
33162;SDS011;29282;45.656;11.302;2023-01-26T12:53:22;14.13;;;6.72;;
33162;SDS011;29282;45.656;11.302;2023-01-26T12:56:22;11.00;;;5.72;;
33162;SDS011;29282;45.656;11.302;2023-01-26T12:58:54;12.55;;;6.15;;
33162;SDS011;29282;45.656;11.302;2023-01-26T13:01:23;11.60;;;6.38;;
33162;SDS011;29282;45.656;11.302;2023-01-26T13:03:53;11.95;;;6.68;;
33162;SDS011;29282;45.656;11.302;2023-01-26T13:06:22;9.88;;;6.20;;
33162;SDS011;29282;45.656;11.302;2023-01-26T13:08:51;10.88;;;6.05;;
33162;SDS011;29282;45.656;11.302;2023-01-26T13:19:50;11.90;;;5.82;;
33162;SDS011;29282;45.656;11.302;2023-01-26T13:24:46;10.10;;;6.90;;
33162;SDS011;29282;45.656;11.302;2023-01-26T13:27:30;11.38;;;7.07;;
33162;SDS011;29282;45.656;11.302;2023-01-26T13:29:56;12.77;;;6.65;;
33162;SDS011;29282;45.656;11.302;2023-01-26T13:34:52;11.65;;;6.68;;
33162;SDS011;29282;45.656;11.302;2023-01-26T13:39:50;10.20;;;5.97;;
33162;SDS011;29282;45.656;11.302;2023-01-26T13:42:22;9.75;;;6.30;;
33162;SDS011;29282;45.656;11.302;2023-01-26T13:45:02;11.93;;;6.03;;
33162;SDS011;29282;45.656;11.302;2023-01-26T13:47:37;14.43;;;6.75;;
33162;SDS011;29282;45.656;11.302;2023-01-26T13:52:56;7.80;;;5.95;;
33162;SDS011;29282;45.656;11.302;2023-01-26T13:55:31;10.35;;;6.00;;
33162;SDS011;29282;45.656;11.302;2023-01-26T14:00:39;6.93;;;5.38;;
33162;SDS011;29282;45.656;11.302;2023-01-26T14:03:22;10.55;;;5.78;;
33162;SDS011;29282;45.656;11.302;2023-01-26T14:05:51;9.37;;;5.87;;
33162;SDS011;29282;45.656;11.302;2023-01-26T14:08:25;8.90;;;5.80;;
33162;SDS011;29282;45.656;11.302;2023-01-26T14:10:53;13.98;;;6.18;;
33162;SDS011;29282;45.656;11.302;2023-01-26T14:13:23;11.85;;;6.30;;
33162;SDS011;29282;45.656;11.302;2023-01-26T14:16:02;9.63;;;5.90;;
33162;SDS011;29282;45.656;11.302;2023-01-26T14:18:30;9.02;;;5.53;;
33162;SDS011;29282;45.656;11.302;2023-01-26T14:20:57;7.82;;;5.57;;
33162;SDS011;29282;45.656;11.302;2023-01-26T14:23:31;8.80;;;5.55;;
33162;SDS011;29282;45.656;11.302;2023-01-26T14:26:00;16.67;;;5.80;;
33162;SDS011;29282;45.656;11.302;2023-01-26T14:28:36;9.95;;;5.88;;
33162;SDS011;29282;45.656;11.302;2023-01-26T14:31:11;14.07;;;5.85;;
33162;SDS011;29282;45.656;11.302;2023-01-26T14:33:48;7.50;;;5.22;;
33162;SDS011;29282;45.656;11.302;2023-01-26T14:36:18;9.15;;;5.35;;
33162;SDS011;29282;45.656;11.302;2023-01-26T14:38:45;8.38;;;5.63;;
33162;SDS011;29282;45.656;11.302;2023-01-26T14:43:57;8.13;;;5.07;;
33162;SDS011;29282;45.656;11.302;2023-01-26T14:52:14;10.40;;;5.78;;
33162;SDS011;29282;45.656;11.302;2023-01-26T14:54:51;9.55;;;5.97;;
33162;SDS011;29282;45.656;11.302;2023-01-26T14:57:20;9.68;;;5.60;;
33162;SDS011;29282;45.656;11.302;2023-01-26T14:59:55;11.05;;;5.28;;
33162;SDS011;29282;45.656;11.302;2023-01-26T15:02:41;9.65;;;5.85;;
33162;SDS011;29282;45.656;11.302;2023-01-26T15:05:19;7.50;;;5.35;;
33162;SDS011;29282;45.656;11.302;2023-01-26T15:15:28;11.07;;;5.32;;
33162;SDS011;29282;45.656;11.302;2023-01-26T15:17:59;10.85;;;5.75;;
33162;SDS011;29282;45.656;11.302;2023-01-26T15:23:21;8.10;;;5.10;;
33162;SDS011;29282;45.656;11.302;2023-01-26T15:25:49;10.13;;;5.32;;
33162;SDS011;29282;45.656;11.302;2023-01-26T15:28:23;9.43;;;5.40;;
33162;SDS011;29282;45.656;11.302;2023-01-26T15:30:50;8.00;;;5.45;;
33162;SDS011;29282;45.656;11.302;2023-01-26T15:38:45;10.02;;;5.15;;
33162;SDS011;29282;45.656;11.302;2023-01-26T15:41:11;8.05;;;5.40;;
33162;SDS011;29282;45.656;11.302;2023-01-26T15:43:37;8.32;;;4.97;;
33162;SDS011;29282;45.656;11.302;2023-01-26T15:46:03;10.70;;;5.70;;
33162;SDS011;29282;45.656;11.302;2023-01-26T15:48:28;8.55;;;5.30;;
33162;SDS011;29282;45.656;11.302;2023-01-26T15:50:58;10.68;;;5.38;;
33162;SDS011;29282;45.656;11.302;2023-01-26T15:53:23;10.45;;;5.32;;
33162;SDS011;29282;45.656;11.302;2023-01-26T15:55:49;9.38;;;4.85;;
33162;SDS011;29282;45.656;11.302;2023-01-26T15:58:19;7.38;;;5.43;;
33162;SDS011;29282;45.656;11.302;2023-01-26T16:00:46;9.40;;;5.60;;
33162;SDS011;29282;45.656;11.302;2023-01-26T16:03:13;9.68;;;4.95;;
33162;SDS011;29282;45.656;11.302;2023-01-26T16:05:40;12.15;;;6.03;;
33162;SDS011;29282;45.656;11.302;2023-01-26T16:08:06;9.10;;;5.50;;
33162;SDS011;29282;45.656;11.302;2023-01-26T16:10:33;11.25;;;5.38;;
33162;SDS011;29282;45.656;11.302;2023-01-26T16:12:58;5.60;;;4.55;;
33162;SDS011;29282;45.656;11.302;2023-01-26T16:18:12;11.95;;;5.38;;
33162;SDS011;29282;45.656;11.302;2023-01-26T16:20:39;10.13;;;5.75;;
33162;SDS011;29282;45.656;11.302;2023-01-26T16:23:16;6.78;;;4.82;;
33162;SDS011;29282;45.656;11.302;2023-01-26T16:25:56;7.05;;;5.00;;
33162;SDS011;29282;45.656;11.302;2023-01-26T16:28:21;7.30;;;5.28;;
33162;SDS011;29282;45.656;11.302;2023-01-26T16:30:47;10.40;;;5.40;;
33162;SDS011;29282;45.656;11.302;2023-01-26T16:33:16;6.68;;;5.00;;
33162;SDS011;29282;45.656;11.302;2023-01-26T16:35:45;7.45;;;4.97;;